CYAY

Saint Anthony Airport

St. Anthony, Canada
METAR CYAY 151238Z AUTO 32036G51KT 3/4SM -SN BKN006 M02/M05 A2929 RMK VIS VRB 3/8-1 1/2 PRESRR SLP923
Observed Flight Rules
Nov-15 @ 12:38 UTC (3 minutes ago) Instrument Flight Rules
Wind Visibility Clouds Conditions
320° at 36 knots
 Gusting to 51 knots
3/4 miles
  • Broken at 600' AGL
  • Light Snow
Temperatures Readings
Current -2°C / 28°F
Dewpoint -5°C / 23°F
Humidity 80%
Altimeter 29.29" Hg
Pressure 992.3 hPa
Elevation 28
METAR CYAY 151238Z AUTO 32036G51KT 3/4SM -SN BKN006 M02/M05 A2929 RMK VIS VRB 3/8-1 1/2 PRESRR SLP923
Observed Flight Rules
Nov-15 @ 12:38 UTC
(3 minutes ago)
LIFR
Wind Visibility
320° at 36 knots
 Gusting to 51 knots
3/4 miles
Clouds
  • Broken at 600' AGL
Conditions
  • Light Snow
Temperature Dewpoint
-2°C / 28°F -5°C / 23°F
Humidity Altimeter Pressure
80% 29.29" Hg 992.3 hPa